Time;durP1;ratioP1;P1;durP2;ratioP2;P2;SDS_P1;SDS_P2;PMS_P1;PMS_P2;Temp;Humidity;BMP_temperature;BMP_pressure;BME280_temperature;BME280_humidity;BME280_pressure;Samples;Min_cycle;Max_cycle;Signal;HPM_P1;HPM_P2
2023/07/22 00:01:13;;;;;;;;;;;;;;;;;;2074520;28;19913;-74
2023/07/22 00:02:33;;;;;;;;;;;;;;;;;;2074531;28;19905;-74
2023/07/22 00:03:54;;;;;;;;;;;;;;;;;;2068040;28;19918;-73
2023/07/22 00:05:15;;;;;;;;;;;;;;;;;;2066447;28;19921;-74
2023/07/22 00:06:35;;;;;;;;;;;;;;;;;;2066699;28;19953;-73
2023/07/22 00:07:56;;;;;;;;;;;;;;;;;;2067713;28;19910;-74
2023/07/22 00:09:17;;;;;;;;;;;;;;;;;;2066973;28;19913;-73
2023/07/22 00:10:38;;;;;;;;;;;;;;;;;;2067163;28;19916;-73
2023/07/22 00:11:58;;;;;;;;;;;;;;;;;;2073964;28;19909;-74
2023/07/22 00:13:19;;;;;;;;;;;;;;;;;;2068911;28;19909;-74
2023/07/22 00:14:40;;;;;;;;;;;;;;;;;;2067180;28;19909;-74
2023/07/22 00:16:04;;;;;;;;;;;;;;;;;;2066378;28;19913;-74
2023/07/22 00:17:24;;;;;;;;;;;;;;;;;;2066345;28;20375;-74
2023/07/22 00:18:45;;;;;;;;;;;;;;;;;;2067251;28;19912;-74
2023/07/22 00:20:06;;;;;;;;;;;;;;;;;;2066717;28;19906;-73
2023/07/22 00:21:29;;;;;;;;;;;;;;;;;;2065106;28;19905;-74
2023/07/22 00:22:50;;;;;;;;;;;;;;;;;;2058679;28;19910;-73
2023/07/22 00:24:11;;;;;;;;;;;;;;;;;;2068353;28;19913;-73
2023/07/22 00:25:32;;;;;;;;;;;;;;;;;;2060158;28;19917;-73
2023/07/22 00:26:52;;;;;;;;;;;;;;;;;;2060992;28;19906;-74
2023/07/22 00:28:13;;;;;;;;;;;;;;;;;;2067338;28;19914;-74
2023/07/22 00:29:34;;;;;;;;;;;;;;;;;;2065868;28;20368;-74
2023/07/22 00:30:54;;;;;;;;;;;;;;;;;;2072075;28;19909;-74
2023/07/22 00:32:17;;;;;;;;;;;;;;;;;;2068312;28;19916;-74
2023/07/22 00:33:38;;;;;;;;;;;;;;;;;;2065558;28;19913;-74
2023/07/22 00:34:59;;;;;;;;;;;;;;;;;;2068147;28;19920;-74
2023/07/22 00:36:19;;;;;;;;;;;;;;;;;;2069869;28;20353;-74
2023/07/22 00:37:41;;;;;;;;;;;;;;;;;;2058529;28;19906;-73
2023/07/22 00:39:02;;;;;;;;;;;;;;;;;;2064136;28;20356;-73
2023/07/22 00:40:22;;;;;;;;;;;;;;;;;;2058129;28;19910;-73
2023/07/22 00:41:44;;;;;;;;;;;;;;;;;;2061661;28;19914;-73
2023/07/22 00:43:07;;;;;;;;;;;;;;;;;;2072785;28;19905;-73
2023/07/22 00:44:31;;;;;;;;;;;;;;;;;;2068055;28;19921;-73
2023/07/22 00:45:52;;;;;;;;;;;;;;;;;;2074991;28;19913;-74
2023/07/22 00:47:12;;;;;;;;;;;;;;;;;;2069756;28;19906;-73
2023/07/22 00:48:34;;;;;;;;;;;;;;;;;;2066595;28;19921;-73
2023/07/22 00:49:56;;;;;;;;;;;;;;;;;;2061428;28;19906;-74
2023/07/22 00:51:16;;;;;;;;;;;;;;;;;;2057251;28;19988;-77
2023/07/22 00:52:37;;;;;;;;;;;;;;;;;;2047349;28;19913;-77
2023/07/22 00:53:58;;;;;;;;;;;;;;;;;;2065761;28;19997;-76
2023/07/22 00:55:18;;;;;;;;;;;;;;;;;;2066781;28;20289;-77
2023/07/22 00:56:39;;;;;;;;;;;;;;;;;;2057866;28;19986;-77
2023/07/22 00:58:00;;;;;;;;;;;;;;;;;;2067539;28;19966;-77
2023/07/22 00:59:20;;;;;;;;;;;;;;;;;;2076371;28;20307;-77
2023/07/22 01:00:41;;;;;;;;;;;;;;;;;;2057702;28;19925;-77
2023/07/22 01:02:02;;;;;;;;;;;;;;;;;;2058034;28;20587;-76
2023/07/22 01:03:22;;;;;;;;;;;;;;;;;;2064502;28;19913;-76
2023/07/22 01:04:43;;;;;;;;;;;;;;;;;;2059030;28;19918;-77
2023/07/22 01:06:04;;;;;;;;;;;;;;;;;;2057860;28;19918;-76
2023/07/22 01:07:24;;;;;;;;;;;;;;;;;;2066317;28;19905;-77
2023/07/22 01:08:46;;;;;;;;;;;;;;;;;;2061285;28;19906;-77
2023/07/22 01:10:08;;;;;;;;;;;;;;;;;;2056379;28;19910;-77
2023/07/22 01:11:28;;;;;;;;;;;;;;;;;;2066020;28;19905;-77
2023/07/22 01:12:49;;;;;;;;;;;;;;;;;;2052599;28;19906;-78
2023/07/22 01:14:10;;;;;;;;;;;;;;;;;;2063138;28;19913;-77
2023/07/22 01:15:30;;;;;;;;;;;;;;;;;;2060634;28;20529;-78
2023/07/22 01:16:51;;;;;;;;;;;;;;;;;;2056120;28;19917;-77
2023/07/22 01:18:12;;;;;;;;;;;;;;;;;;2057291;28;20121;-78
2023/07/22 01:19:33;;;;;;;;;;;;;;;;;;2056281;28;19910;-78
2023/07/22 01:20:53;;;;;;;;;;;;;;;;;;2056813;28;19936;-78
2023/07/22 01:22:14;;;;;;;;;;;;;;;;;;2056068;28;19906;-77
2023/07/22 01:23:35;;;;;;;;;;;;;;;;;;2065141;28;20285;-77
2023/07/22 01:24:56;;;;;;;;;;;;;;;;;;2060061;28;19910;-78
2023/07/22 01:26:16;;;;;;;;;;;;;;;;;;2063949;28;19905;-78
2023/07/22 01:27:37;;;;;;;;;;;;;;;;;;2057568;28;20362;-78
2023/07/22 01:28:58;;;;;;;;;;;;;;;;;;2057448;28;20389;-77
2023/07/22 01:30:19;;;;;;;;;;;;;;;;;;2049010;29;19907;-77
2023/07/22 01:31:40;;;;;;;;;;;;;;;;;;2060541;28;19906;-77
2023/07/22 01:33:00;;;;;;;;;;;;;;;;;;2065549;28;20370;-77
2023/07/22 01:34:21;;;;;;;;;;;;;;;;;;2065496;28;19920;-77
2023/07/22 01:35:42;;;;;;;;;;;;;;;;;;2066075;28;19906;-77
2023/07/22 01:37:04;;;;;;;;;;;;;;;;;;2057580;28;19906;-76
2023/07/22 01:38:25;;;;;;;;;;;;;;;;;;2062708;28;20258;-76
2023/07/22 01:39:45;;;;;;;;;;;;;;;;;;2065689;28;19912;-77
2023/07/22 01:41:06;;;;;;;;;;;;;;;;;;2065655;28;19910;-77
2023/07/22 01:42:27;;;;;;;;;;;;;;;;;;2064341;28;20377;-77
2023/07/22 01:43:48;;;;;;;;;;;;;;;;;;2064468;28;19914;-77
2023/07/22 01:45:09;;;;;;;;;;;;;;;;;;2065577;28;19906;-78
2023/07/22 01:46:30;;;;;;;;;;;;;;;;;;2065238;28;19912;-77
2023/07/22 01:47:51;;;;;;;;;;;;;;;;;;2065141;28;19916;-77
2023/07/22 01:49:12;;;;;;;;;;;;;;;;;;2064560;28;20373;-77
2023/07/22 01:50:33;;;;;;;;;;;;;;;;;;2065634;28;19913;-77
2023/07/22 01:51:54;;;;;;;;;;;;;;;;;;2056847;28;19925;-77
2023/07/22 01:53:14;;;;;;;;;;;;;;;;;;2062925;28;19906;-77
2023/07/22 01:54:35;;;;;;;;;;;;;;;;;;2056106;28;19918;-77
2023/07/22 01:55:56;;;;;;;;;;;;;;;;;;2059033;28;19914;-77
2023/07/22 01:57:16;;;;;;;;;;;;;;;;;;2073900;28;19909;-77
2023/07/22 01:58:37;;;;;;;;;;;;;;;;;;2063344;28;19910;-77
2023/07/22 01:59:58;;;;;;;;;;;;;;;;;;2064613;28;19915;-77
2023/07/22 02:01:18;;;;;;;;;;;;;;;;;;2064290;28;19917;-78
2023/07/22 02:02:39;;;;;;;;;;;;;;;;;;2064264;28;19906;-77
2023/07/22 02:04:00;;;;;;;;;;;;;;;;;;2056218;28;20381;-77
2023/07/22 02:05:21;;;;;;;;;;;;;;;;;;2062154;28;19905;-77
2023/07/22 02:06:41;;;;;;;;;;;;;;;;;;2065658;28;19906;-78
2023/07/22 02:08:02;;;;;;;;;;;;;;;;;;2065159;28;19912;-78
2023/07/22 02:09:23;;;;;;;;;;;;;;;;;;2064032;28;19913;-78
2023/07/22 02:10:43;;;;;;;;;;;;;;;;;;2064913;28;19916;-77
2023/07/22 02:12:04;;;;;;;;;;;;;;;;;;2064832;28;19912;-77
2023/07/22 02:13:27;;;;;;;;;;;;;;;;;;2055984;28;19906;-76
2023/07/22 02:14:48;;;;;;;;;;;;;;;;;;2060767;28;19914;-76
2023/07/22 02:16:12;;;;;;;;;;;;;;;;;;2064968;28;19913;-77
2023/07/22 02:17:33;;;;;;;;;;;;;;;;;;2056512;28;19929;-77
2023/07/22 02:18:54;;;;;;;;;;;;;;;;;;2061956;28;20284;-77
2023/07/22 02:20:15;;;;;;;;;;;;;;;;;;2064028;28;19905;-77
2023/07/22 02:21:35;;;;;;;;;;;;;;;;;;2054372;28;20320;-77
2023/07/22 02:22:56;;;;;;;;;;;;;;;;;;2061793;28;19906;-77
2023/07/22 02:24:17;;;;;;;;;;;;;;;;;;2064924;28;19916;-77
2023/07/22 02:25:38;;;;;;;;;;;;;;;;;;2057209;28;19906;-76
2023/07/22 02:26:59;;;;;;;;;;;;;;;;;;2056912;28;19910;-76
2023/07/22 02:28:21;;;;;;;;;;;;;;;;;;2062949;28;19910;-75
2023/07/22 02:29:42;;;;;;;;;;;;;;;;;;2058038;28;20415;-75
2023/07/22 02:31:07;;;;;;;;;;;;;;;;;;2064167;28;20423;-74
2023/07/22 02:32:27;;;;;;;;;;;;;;;;;;2066828;28;19913;-75
2023/07/22 02:33:48;;;;;;;;;;;;;;;;;;2067414;28;19909;-75
2023/07/22 02:35:09;;;;;;;;;;;;;;;;;;2058852;28;20285;-75
2023/07/22 02:36:29;;;;;;;;;;;;;;;;;;2063886;28;19913;-74
2023/07/22 02:37:50;;;;;;;;;;;;;;;;;;2066868;28;20372;-75
2023/07/22 02:39:11;;;;;;;;;;;;;;;;;;2058152;28;19913;-74
2023/07/22 02:40:31;;;;;;;;;;;;;;;;;;2056502;28;19906;-75
2023/07/22 02:41:52;;;;;;;;;;;;;;;;;;2059072;28;19918;-75
2023/07/22 02:43:13;;;;;;;;;;;;;;;;;;2066697;28;19914;-75
2023/07/22 02:44:34;;;;;;;;;;;;;;;;;;2060027;28;19921;-75
2023/07/22 02:45:55;;;;;;;;;;;;;;;;;;2065992;28;19917;-74
2023/07/22 02:47:16;;;;;;;;;;;;;;;;;;2062133;28;19914;-74
2023/07/22 02:48:36;;;;;;;;;;;;;;;;;;2057696;28;19929;-74
2023/07/22 02:49:57;;;;;;;;;;;;;;;;;;2058453;28;20400;-75
2023/07/22 02:51:18;;;;;;;;;;;;;;;;;;2063336;28;19906;-75
2023/07/22 02:52:39;;;;;;;;;;;;;;;;;;2066846;28;19906;-75
2023/07/22 02:53:59;;;;;;;;;;;;;;;;;;2065066;28;19920;-74
2023/07/22 02:55:20;;;;;;;;;;;;;;;;;;2064782;28;20292;-74
2023/07/22 02:56:41;;;;;;;;;;;;;;;;;;2058584;28;19910;-74
2023/07/22 02:58:01;;;;;;;;;;;;;;;;;;2067154;28;19906;-75
2023/07/22 02:59:22;;;;;;;;;;;;;;;;;;2067361;28;19921;-74
2023/07/22 03:00:43;;;;;;;;;;;;;;;;;;2071668;28;20312;-75
2023/07/22 03:02:04;;;;;;;;;;;;;;;;;;2074559;28;19909;-75
2023/07/22 03:03:25;;;;;;;;;;;;;;;;;;2074457;28;20292;-75
2023/07/22 03:04:45;;;;;;;;;;;;;;;;;;2065291;28;19915;-75
2023/07/22 03:06:07;;;;;;;;;;;;;;;;;;2063509;28;19918;-75
2023/07/22 03:07:28;;;;;;;;;;;;;;;;;;2071183;28;19905;-75
2023/07/22 03:08:49;;;;;;;;;;;;;;;;;;2065414;28;19913;-74
2023/07/22 03:10:10;;;;;;;;;;;;;;;;;;2071277;28;20411;-74
2023/07/22 03:11:32;;;;;;;;;;;;;;;;;;2074507;28;19913;-74
2023/07/22 03:12:55;;;;;;;;;;;;;;;;;;2074509;28;19905;-75
2023/07/22 03:14:16;;;;;;;;;;;;;;;;;;2073421;28;19948;-75
2023/07/22 03:15:36;;;;;;;;;;;;;;;;;;2074224;28;19906;-75
2023/07/22 03:16:57;;;;;;;;;;;;;;;;;;2065030;28;19952;-74
2023/07/22 03:18:18;;;;;;;;;;;;;;;;;;2066779;28;19916;-75
2023/07/22 03:19:39;;;;;;;;;;;;;;;;;;2066333;28;19906;-75
2023/07/22 03:20:59;;;;;;;;;;;;;;;;;;2067714;28;20380;-75
2023/07/22 03:22:20;;;;;;;;;;;;;;;;;;2059251;28;19906;-74
2023/07/22 03:23:41;;;;;;;;;;;;;;;;;;2066809;28;19906;-74
2023/07/22 03:25:02;;;;;;;;;;;;;;;;;;2067746;28;19918;-75
2023/07/22 03:26:22;;;;;;;;;;;;;;;;;;2072100;28;20272;-76
2023/07/22 03:27:43;;;;;;;;;;;;;;;;;;2065147;28;19910;-75
2023/07/22 03:29:05;;;;;;;;;;;;;;;;;;2070760;28;20288;-75
2023/07/22 03:30:25;;;;;;;;;;;;;;;;;;2064241;28;20324;-75
2023/07/22 03:31:46;;;;;;;;;;;;;;;;;;2058042;28;20143;-75
2023/07/22 03:33:07;;;;;;;;;;;;;;;;;;2057326;28;19913;-75
2023/07/22 03:34:27;;;;;;;;;;;;;;;;;;2057144;28;19912;-75
2023/07/22 03:35:48;;;;;;;;;;;;;;;;;;2057871;28;19910;-76
2023/07/22 03:37:09;;;;;;;;;;;;;;;;;;2057779;28;19913;-75
2023/07/22 03:38:36;;;;;;;;;;;;;;;;;;2058237;28;19906;-75
2023/07/22 03:39:56;;;;;;;;;;;;;;;;;;2068647;28;19921;-76
2023/07/22 03:41:17;;;;;;;;;;;;;;;;;;2069697;28;19909;-75
2023/07/22 03:42:38;;;;;;;;;;;;;;;;;;2060871;28;20230;-75
2023/07/22 03:43:58;;;;;;;;;;;;;;;;;;2072845;28;20004;-75
2023/07/22 03:45:19;;;;;;;;;;;;;;;;;;2068388;28;19910;-75
2023/07/22 03:46:40;;;;;;;;;;;;;;;;;;2067716;28;20284;-75
2023/07/22 03:48:00;;;;;;;;;;;;;;;;;;2065685;28;19906;-76
2023/07/22 03:49:21;;;;;;;;;;;;;;;;;;2058577;28;19910;-75
2023/07/22 03:50:42;;;;;;;;;;;;;;;;;;2063199;28;20431;-75
2023/07/22 03:52:02;;;;;;;;;;;;;;;;;;2058607;28;19965;-76
2023/07/22 03:53:23;;;;;;;;;;;;;;;;;;2057701;28;19956;-75
2023/07/22 03:54:44;;;;;;;;;;;;;;;;;;2057869;28;19981;-74
2023/07/22 03:56:05;;;;;;;;;;;;;;;;;;2065610;28;19910;-74
2023/07/22 03:57:25;;;;;;;;;;;;;;;;;;2057993;28;19917;-75
2023/07/22 03:58:46;;;;;;;;;;;;;;;;;;2056542;28;20340;-75
2023/07/22 04:00:10;;;;;;;;;;;;;;;;;;2064488;28;19906;-74
2023/07/22 04:01:31;;;;;;;;;;;;;;;;;;2066353;28;20280;-74
2023/07/22 04:02:52;;;;;;;;;;;;;;;;;;2068827;28;19909;-74
2023/07/22 04:04:13;;;;;;;;;;;;;;;;;;2074603;28;19913;-74
2023/07/22 04:05:33;;;;;;;;;;;;;;;;;;2065114;28;19953;-74
2023/07/22 04:06:54;;;;;;;;;;;;;;;;;;2063368;28;20321;-74
2023/07/22 04:08:15;;;;;;;;;;;;;;;;;;2070937;28;19928;-75
2023/07/22 04:09:35;;;;;;;;;;;;;;;;;;2073632;28;19905;-74
2023/07/22 04:10:56;;;;;;;;;;;;;;;;;;2073061;28;19906;-74
2023/07/22 04:12:17;;;;;;;;;;;;;;;;;;2063576;28;20369;-74
2023/07/22 04:13:37;;;;;;;;;;;;;;;;;;2071068;28;19916;-75
2023/07/22 04:14:58;;;;;;;;;;;;;;;;;;2057360;28;19977;-74
2023/07/22 04:16:19;;;;;;;;;;;;;;;;;;2059807;28;19907;-75
2023/07/22 04:17:40;;;;;;;;;;;;;;;;;;2058380;28;19917;-74
2023/07/22 04:19:01;;;;;;;;;;;;;;;;;;2065269;28;20254;-74
2023/07/22 04:20:24;;;;;;;;;;;;;;;;;;2065920;28;20308;-74
2023/07/22 04:21:44;;;;;;;;;;;;;;;;;;2061856;28;19914;-74
2023/07/22 04:23:05;;;;;;;;;;;;;;;;;;2057730;28;20494;-74
2023/07/22 04:24:26;;;;;;;;;;;;;;;;;;2057418;28;20388;-74
2023/07/22 04:25:46;;;;;;;;;;;;;;;;;;2065309;28;19905;-74
2023/07/22 04:27:07;;;;;;;;;;;;;;;;;;2057767;28;19917;-74
2023/07/22 04:28:28;;;;;;;;;;;;;;;;;;2068876;28;19917;-74
2023/07/22 04:29:48;;;;;;;;;;;;;;;;;;2073207;28;20371;-75
2023/07/22 04:31:09;;;;;;;;;;;;;;;;;;2073392;28;19906;-75
2023/07/22 04:32:30;;;;;;;;;;;;;;;;;;2073651;28;20352;-75
2023/07/22 04:33:51;;;;;;;;;;;;;;;;;;2071476;28;19905;-75
2023/07/22 04:35:11;;;;;;;;;;;;;;;;;;2068236;28;19917;-75
2023/07/22 04:36:32;;;;;;;;;;;;;;;;;;2064897;28;19940;-75
2023/07/22 04:37:53;;;;;;;;;;;;;;;;;;2056080;28;19918;-75
2023/07/22 04:39:13;;;;;;;;;;;;;;;;;;2054831;28;19930;-75
2023/07/22 04:40:34;;;;;;;;;;;;;;;;;;2061961;28;19910;-75
2023/07/22 04:41:55;;;;;;;;;;;;;;;;;;2064417;28;20280;-75
2023/07/22 04:43:16;;;;;;;;;;;;;;;;;;2055423;28;19953;-75
2023/07/22 04:44:37;;;;;;;;;;;;;;;;;;2052135;28;19999;-75
2023/07/22 04:45:58;;;;;;;;;;;;;;;;;;2055102;28;20356;-75
2023/07/22 04:47:18;;;;;;;;;;;;;;;;;;2062085;28;19956;-75
2023/07/22 04:48:39;;;;;;;;;;;;;;;;;;2065131;28;19909;-75
2023/07/22 04:50:00;;;;;;;;;;;;;;;;;;2065323;28;20596;-75
2023/07/22 04:51:20;;;;;;;;;;;;;;;;;;2064957;28;19920;-75
2023/07/22 04:52:41;;;;;;;;;;;;;;;;;;2056976;28;19906;-75
2023/07/22 04:54:02;;;;;;;;;;;;;;;;;;2064013;28;19906;-75
2023/07/22 04:55:22;;;;;;;;;;;;;;;;;;2064177;28;19914;-73
2023/07/22 04:56:46;;;;;;;;;;;;;;;;;;2065518;28;19964;-74
2023/07/22 04:58:08;;;;;;;;;;;;;;;;;;2062283;28;19914;-75
2023/07/22 04:59:28;;;;;;;;;;;;;;;;;;2065066;28;19910;-74
2023/07/22 05:00:49;;;;;;;;;;;;;;;;;;2062600;28;19957;-74
2023/07/22 05:02:10;;;;;;;;;;;;;;;;;;2063462;28;20253;-75
2023/07/22 05:03:31;;;;;;;;;;;;;;;;;;2049864;29;19942;-74
2023/07/22 05:04:52;;;;;;;;;;;;;;;;;;2054127;28;19921;-74
2023/07/22 05:06:12;;;;;;;;;;;;;;;;;;2064568;28;19921;-73
2023/07/22 05:07:36;;;;;;;;;;;;;;;;;;2052498;28;19913;-74
2023/07/22 05:08:56;;;;;;;;;;;;;;;;;;2050311;29;19911;-77
2023/07/22 05:10:32;;;;;;;;;;;;;;;;;;2053787;28;19913;-75
2023/07/22 05:11:55;;;;;;;;;;;;;;;;;;2065722;28;19905;-72
2023/07/22 05:13:17;;;;;;;;;;;;;;;;;;2073876;28;19917;-74
2023/07/22 05:14:44;;;;;;;;;;;;;;;;;;2059715;28;19906;-75
2023/07/22 05:16:05;;;;;;;;;;;;;;;;;;2059097;28;20452;-73
2023/07/22 05:17:25;;;;;;;;;;;;;;;;;;2066571;28;19905;-72
2023/07/22 05:18:49;;;;;;;;;;;;;;;;;;2063836;28;19986;-74
2023/07/22 05:20:10;;;;;;;;;;;;;;;;;;2064329;28;19913;-75
2023/07/22 05:21:30;;;;;;;;;;;;;;;;;;2062356;28;19909;-75
2023/07/22 05:22:51;;;;;;;;;;;;;;;;;;2057550;28;19906;-75
2023/07/22 05:24:12;;;;;;;;;;;;;;;;;;2066242;28;20397;-75
2023/07/22 05:25:33;;;;;;;;;;;;;;;;;;2058503;28;19914;-75
2023/07/22 05:26:54;;;;;;;;;;;;;;;;;;2057373;28;19913;-76
2023/07/22 05:28:15;;;;;;;;;;;;;;;;;;2063578;28;19913;-76
2023/07/22 05:29:36;;;;;;;;;;;;;;;;;;2070786;28;19905;-76
2023/07/22 05:30:56;;;;;;;;;;;;;;;;;;2064393;28;19974;-76
2023/07/22 05:32:17;;;;;;;;;;;;;;;;;;2070186;28;19910;-76
2023/07/22 05:33:38;;;;;;;;;;;;;;;;;;2072960;28;19905;-75
2023/07/22 05:34:59;;;;;;;;;;;;;;;;;;2050546;28;19914;-76
2023/07/22 05:36:19;;;;;;;;;;;;;;;;;;2069210;28;19913;-75
2023/07/22 05:37:40;;;;;;;;;;;;;;;;;;2067737;28;19906;-76
2023/07/22 05:39:01;;;;;;;;;;;;;;;;;;2056897;28;19906;-75
2023/07/22 05:40:21;;;;;;;;;;;;;;;;;;2054550;28;20361;-75
2023/07/22 05:41:42;;;;;;;;;;;;;;;;;;2063199;28;19909;-76
2023/07/22 05:43:03;;;;;;;;;;;;;;;;;;2057358;28;19906;-76
2023/07/22 05:44:24;;;;;;;;;;;;;;;;;;2063325;28;19909;-75
2023/07/22 05:45:44;;;;;;;;;;;;;;;;;;2064814;28;19918;-75
2023/07/22 05:47:05;;;;;;;;;;;;;;;;;;2064189;28;19972;-75
2023/07/22 05:48:26;;;;;;;;;;;;;;;;;;2065132;28;19905;-76
2023/07/22 05:49:47;;;;;;;;;;;;;;;;;;2058892;28;19957;-76
2023/07/22 05:51:08;;;;;;;;;;;;;;;;;;2066052;28;19906;-77
2023/07/22 05:52:29;;;;;;;;;;;;;;;;;;2066313;28;20354;-75
2023/07/22 05:53:50;;;;;;;;;;;;;;;;;;2065769;28;19906;-75
2023/07/22 05:55:10;;;;;;;;;;;;;;;;;;2064610;28;19933;-77
2023/07/22 05:56:31;;;;;;;;;;;;;;;;;;2057831;28;20393;-75
2023/07/22 05:57:52;;;;;;;;;;;;;;;;;;2063353;28;19909;-75
2023/07/22 05:59:12;;;;;;;;;;;;;;;;;;2070105;28;19905;-75
2023/07/22 06:00:33;;;;;;;;;;;;;;;;;;2061606;28;19918;-76
2023/07/22 06:01:54;;;;;;;;;;;;;;;;;;2056390;28;20153;-75
2023/07/22 06:03:15;;;;;;;;;;;;;;;;;;2055346;28;19910;-75
2023/07/22 06:04:36;;;;;;;;;;;;;;;;;;2063375;28;19906;-76
2023/07/22 06:05:56;;;;;;;;;;;;;;;;;;2057182;28;19930;-75
2023/07/22 06:07:18;;;;;;;;;;;;;;;;;;2068535;28;20419;-75
2023/07/22 06:08:39;;;;;;;;;;;;;;;;;;2067110;28;20353;-75
2023/07/22 06:09:59;;;;;;;;;;;;;;;;;;2063248;28;20361;-74
2023/07/22 06:11:20;;;;;;;;;;;;;;;;;;2063148;28;19960;-75
2023/07/22 06:12:41;;;;;;;;;;;;;;;;;;2062753;28;19906;-75
2023/07/22 06:14:02;;;;;;;;;;;;;;;;;;2056860;28;20285;-75
2023/07/22 06:15:23;;;;;;;;;;;;;;;;;;2057009;28;19917;-75
2023/07/22 06:16:43;;;;;;;;;;;;;;;;;;2059963;28;19913;-75
2023/07/22 06:18:08;;;;;;;;;;;;;;;;;;2064781;28;19912;-75
2023/07/22 06:19:29;;;;;;;;;;;;;;;;;;2054593;28;19906;-75
2023/07/22 06:20:49;;;;;;;;;;;;;;;;;;2059368;28;19906;-75
2023/07/22 06:22:10;;;;;;;;;;;;;;;;;;2054378;28;19910;-75
2023/07/22 06:23:31;;;;;;;;;;;;;;;;;;2062260;28;20392;-75
2023/07/22 06:24:52;;;;;;;;;;;;;;;;;;2058724;28;19917;-75
2023/07/22 06:26:12;;;;;;;;;;;;;;;;;;2063581;28;19917;-75
2023/07/22 06:27:33;;;;;;;;;;;;;;;;;;2063318;28;19953;-75
2023/07/22 06:28:54;;;;;;;;;;;;;;;;;;2069235;28;19916;-75
2023/07/22 06:30:15;;;;;;;;;;;;;;;;;;2064451;28;19914;-77
2023/07/22 06:31:35;;;;;;;;;;;;;;;;;;2048632;28;19911;-78
2023/07/22 06:32:56;;;;;;;;;;;;;;;;;;2058304;28;20304;-78
2023/07/22 06:34:17;;;;;;;;;;;;;;;;;;2055776;28;19906;-80
2023/07/22 06:35:37;;;;;;;;;;;;;;;;;;2069434;28;20364;-80
2023/07/22 06:36:58;;;;;;;;;;;;;;;;;;2060057;28;19910;-78
2023/07/22 06:38:21;;;;;;;;;;;;;;;;;;2057877;28;20388;-77
2023/07/22 06:39:45;;;;;;;;;;;;;;;;;;2056123;28;19921;-73
2023/07/22 06:41:06;;;;;;;;;;;;;;;;;;2053603;28;19918;-73
2023/07/22 06:42:27;;;;;;;;;;;;;;;;;;2068563;28;19909;-73
2023/07/22 06:43:47;;;;;;;;;;;;;;;;;;2060292;28;19906;-73
2023/07/22 06:45:08;;;;;;;;;;;;;;;;;;2062309;28;20447;-73
2023/07/22 06:46:31;;;;;;;;;;;;;;;;;;2072966;28;19905;-74
2023/07/22 06:47:52;;;;;;;;;;;;;;;;;;2058450;28;19910;-74
2023/07/22 06:49:13;;;;;;;;;;;;;;;;;;2056012;28;19913;-75
2023/07/22 06:50:43;;;;;;;;;;;;;;;;;;2055736;28;19910;-75
2023/07/22 06:52:07;;;;;;;;;;;;;;;;;;2056434;28;20155;-75
2023/07/22 06:53:34;;;;;;;;;;;;;;;;;;2053734;28;19911;-74
2023/07/22 06:54:55;;;;;;;;;;;;;;;;;;2059450;28;19916;-73
2023/07/22 06:56:28;;;;;;;;;;;;;;;;;;;;;
2023/07/22 06:57:55;;;;;;;;;;;;;;;;;;2068971;28;19909;-75
2023/07/22 06:59:29;;;;;;;;;;;;;;;;;;;;;
2023/07/22 07:00:52;;;;;;;;;;;;;;;;;;2062282;28;20284;-75
2023/07/22 07:02:22;;;;;;;;;;;;;;;;;;2065483;28;20540;-74
2023/07/22 07:05:36;;;;;;;;;;;;;;;;;;2051136;28;19918;-73
2023/07/22 07:12:25;;;;;;;;;;;;;;;;;;;;;
2023/07/22 07:14:02;;;;;;;;;;;;;;;;;;;;;
2023/07/22 07:17:19;;;;;;;;;;;;;;;;;;2049318;28;19917;-75
2023/07/22 07:18:43;;;;;;;;;;;;;;;;;;2059070;28;20390;-75
2023/07/22 07:20:09;;;;;;;;;;;;;;;;;;2057678;28;19917;-75
2023/07/22 07:21:39;;;;;;;;;;;;;;;;;;2057468;28;19910;-74
2023/07/22 07:23:16;;;;;;;;;;;;;;;;;;2059805;28;19917;-73
2023/07/22 07:24:47;;;;;;;;;;;;;;;;;;;;;
2023/07/22 07:36:59;;;;;;;;;;;;;;;;;;2044022;28;19922;-74
2023/07/22 07:38:22;;;;;;;;;;;;;;;;;;2042570;29;19914;-74
2023/07/22 07:39:59;;;;;;;;;;;;;;;;;;;;;
2023/07/22 07:43:22;;;;;;;;;;;;;;;;;;2046248;29;20405;-74
2023/07/22 07:44:53;;;;;;;;;;;;;;;;;;2040995;29;19906;-74
2023/07/22 07:48:20;;;;;;;;;;;;;;;;;;;;;
2023/07/22 07:49:52;;;;;;;;;;;;;;;;;;2031911;29;19943;-74
2023/07/22 07:53:21;;;;;;;;;;;;;;;;;;2041450;29;19918;-76
2023/07/22 07:58:33;;;;;;;;;;;;;;;;;;2020071;29;20387;-73
2023/07/22 08:00:10;;;;;;;;;;;;;;;;;;;;;
2023/07/22 08:01:41;;;;;;;;;;;;;;;;;;;;;
2023/07/22 08:03:04;;;;;;;;;;;;;;;;;;2040443;29;19921;-74
2023/07/22 08:04:40;;;;;;;;;;;;;;;;;;2044694;28;19922;-74
2023/07/22 08:06:01;;;;;;;;;;;;;;;;;;2030096;29;19906;-74
2023/07/22 08:07:22;;;;;;;;;;;;;;;;;;2046886;29;19907;-73
2023/07/22 08:10:32;;;;;;;;;;;;;;;;;;2053064;28;20277;-74
2023/07/22 08:11:59;;;;;;;;;;;;;;;;;;2069710;28;19909;-74
2023/07/22 08:15:22;;;;;;;;;;;;;;;;;;;;;
2023/07/22 12:17:14;;;;;;;;;;;;;;;;;;2061679;28;19913;-81
2023/07/22 17:46:44;;;;;;;;;;;;;;;;;;2054048;28;19926;-78
2023/07/22 17:48:05;;;;;;;;;;;;;;;;;;2056855;28;19910;-77
2023/07/22 17:49:25;;;;;;;;;;;;;;;;;;2058288;28;19914;-77
2023/07/22 17:51:01;;;;;;;;;;;;;;;;;;2052369;28;20373;-77
2023/07/22 17:52:22;;;;;;;;;;;;;;;;;;2063111;28;19997;-76
2023/07/22 17:53:46;;;;;;;;;;;;;;;;;;2055666;28;19969;-79
2023/07/22 17:55:07;;;;;;;;;;;;;;;;;;2059423;28;20361;-77
2023/07/22 17:56:35;;;;;;;;;;;;;;;;;;2052720;28;19914;-77
2023/07/22 17:57:58;;;;;;;;;;;;;;;;;;2053658;28;19921;-77
2023/07/22 17:59:26;;;;;;;;;;;;;;;;;;2052747;28;19951;-77
2023/07/22 18:00:56;;;;;;;;;;;;;;;;;;2048800;28;20186;-78
2023/07/22 18:02:38;;;;;;;;;;;;;;;;;;2050701;28;20001;-77
2023/07/22 18:04:07;;;;;;;;;;;;;;;;;;2060925;28;19913;-77
2023/07/22 18:05:30;;;;;;;;;;;;;;;;;;2053971;28;20290;-77
2023/07/22 18:06:59;;;;;;;;;;;;;;;;;;2046122;28;20020;-77
2023/07/22 18:08:20;;;;;;;;;;;;;;;;;;2057254;28;19951;-77
2023/07/22 18:09:43;;;;;;;;;;;;;;;;;;2052534;28;19917;-77
2023/07/22 18:11:19;;;;;;;;;;;;;;;;;;2049110;28;19933;-77
2023/07/22 18:14:24;;;;;;;;;;;;;;;;;;2062751;28;19985;-77
2023/07/22 18:19:14;;;;;;;;;;;;;;;;;;2065071;28;19913;-77
2023/07/22 18:20:37;;;;;;;;;;;;;;;;;;2049809;28;19914;-75
2023/07/22 18:22:05;;;;;;;;;;;;;;;;;;2053076;28;19937;-77
2023/07/22 18:25:15;;;;;;;;;;;;;;;;;;2058165;28;20385;-77
2023/07/22 18:26:44;;;;;;;;;;;;;;;;;;2055972;28;19906;-77
2023/07/22 18:30:13;;;;;;;;;;;;;;;;;;2056683;28;19910;-77
2023/07/22 18:32:05;;;;;;;;;;;;;;;;;;;;;
2023/07/22 18:38:33;;;;;;;;;;;;;;;;;;2015762;29;19919;-77
2023/07/22 18:40:00;;;;;;;;;;;;;;;;;;2022452;28;19921;-77
2023/07/22 18:44:53;;;;;;;;;;;;;;;;;;2061710;28;19910;-78
2023/07/22 18:49:51;;;;;;;;;;;;;;;;;;;;;
2023/07/22 19:01:22;;;;;;;;;;;;;;;;;;2008879;29;19920;-76
2023/07/22 19:06:54;;;;;;;;;;;;;;;;;;2007546;29;19908;-77
2023/07/22 19:09:40;;;;;;;;;;;;;;;;;;2015811;29;19912;-76
2023/07/22 19:11:05;;;;;;;;;;;;;;;;;;2027510;29;19912;-76
2023/07/22 19:12:31;;;;;;;;;;;;;;;;;;2033353;28;20387;-76
2023/07/22 19:13:55;;;;;;;;;;;;;;;;;;2054362;28;19956;-75
2023/07/22 19:15:16;;;;;;;;;;;;;;;;;;2051638;28;20317;-76
2023/07/22 19:16:36;;;;;;;;;;;;;;;;;;2052480;28;19922;-76
2023/07/22 19:17:57;;;;;;;;;;;;;;;;;;2054605;28;19925;-77
2023/07/22 19:19:18;;;;;;;;;;;;;;;;;;2051321;28;20279;-76
2023/07/22 19:20:39;;;;;;;;;;;;;;;;;;2053797;28;19965;-77
2023/07/22 19:21:59;;;;;;;;;;;;;;;;;;2058952;28;20388;-76
2023/07/22 19:23:20;;;;;;;;;;;;;;;;;;2057072;28;19906;-75
2023/07/22 19:24:41;;;;;;;;;;;;;;;;;;2063052;28;19917;-75
2023/07/22 19:26:02;;;;;;;;;;;;;;;;;;2065485;28;19910;-76
2023/07/22 19:27:22;;;;;;;;;;;;;;;;;;2065883;28;19912;-75
2023/07/22 19:28:43;;;;;;;;;;;;;;;;;;2058633;28;19906;-76
2023/07/22 19:30:04;;;;;;;;;;;;;;;;;;2058471;28;19906;-76
2023/07/22 19:31:24;;;;;;;;;;;;;;;;;;2060422;28;19933;-76
2023/07/22 19:32:45;;;;;;;;;;;;;;;;;;2058063;28;19914;-75
2023/07/22 19:34:06;;;;;;;;;;;;;;;;;;2062536;28;20329;-75
2023/07/22 19:35:27;;;;;;;;;;;;;;;;;;2057130;28;19917;-76
2023/07/22 19:36:47;;;;;;;;;;;;;;;;;;2057865;28;19986;-75
2023/07/22 19:38:09;;;;;;;;;;;;;;;;;;2055445;28;19910;-75
2023/07/22 19:39:29;;;;;;;;;;;;;;;;;;2047929;28;19906;-76
2023/07/22 19:40:50;;;;;;;;;;;;;;;;;;2053594;28;19909;-76
2023/07/22 19:42:11;;;;;;;;;;;;;;;;;;2053467;28;19914;-75
2023/07/22 19:43:32;;;;;;;;;;;;;;;;;;2056157;28;20293;-75
2023/07/22 19:44:53;;;;;;;;;;;;;;;;;;2064211;28;19913;-75
2023/07/22 19:46:13;;;;;;;;;;;;;;;;;;2062167;28;20329;-75
2023/07/22 19:47:34;;;;;;;;;;;;;;;;;;2063506;28;19910;-75
2023/07/22 19:48:55;;;;;;;;;;;;;;;;;;2057479;28;20433;-76
2023/07/22 19:50:15;;;;;;;;;;;;;;;;;;2053814;28;19910;-75
2023/07/22 19:51:36;;;;;;;;;;;;;;;;;;2061151;28;19905;-75
2023/07/22 19:52:57;;;;;;;;;;;;;;;;;;2056957;28;19907;-75
2023/07/22 19:54:17;;;;;;;;;;;;;;;;;;2057622;28;20377;-75
2023/07/22 19:55:38;;;;;;;;;;;;;;;;;;2054594;28;19965;-76
2023/07/22 19:56:59;;;;;;;;;;;;;;;;;;2063785;28;20277;-75
2023/07/22 19:58:21;;;;;;;;;;;;;;;;;;2059597;28;19917;-76
2023/07/22 19:59:42;;;;;;;;;;;;;;;;;;2049767;29;19922;-76
2023/07/22 20:01:03;;;;;;;;;;;;;;;;;;2054681;28;19906;-75
2023/07/22 20:02:23;;;;;;;;;;;;;;;;;;2048869;28;19970;-76
2023/07/22 20:03:49;;;;;;;;;;;;;;;;;;2054900;28;20273;-76